Flugmeteorologie

  • METAR LHSM 182245Z 29003KT CAVOK 19/17 Q1019 NOSIG=
  • METAR LHSM 182215Z 30003KT CAVOK 18/17 Q1019 NOSIG=
  • METAR LHSM 182145Z 30004KT CAVOK 20/18 Q1019 NOSIG=
  • METAR LHSM 182115Z 29003KT CAVOK 19/18 Q1019 NOSIG=
  • METAR LHSM 182045Z 31003KT CAVOK 20/19 Q1019 NOSIG=

  • TAF LHSM 182315Z 1900/1909 VRB03KT CAVOK=
  • TAF LHSM 182015Z 1821/1906 VRB03KT CAVOK
  • TAF LHSM 181415Z 1815/1824 VRB03KT 9999 FEW040TCU
  • TAF LHSM 181115Z 1812/1821 VRB03KT 9999 SCT060TCU
  • TAF LHSM 180815Z 1809/1818 VRB03KT CAVOK